sensor_id;sensor_type;location;lat;lon;timestamp;pressure;altitude;pressure_sealevel;temperature;humidity
32251;BME280;41295;48.518;9.206;2023-02-03T00:01:11;98483.09;;;5.93;72.44
32251;BME280;41295;48.518;9.206;2023-02-03T00:03:18;98477.91;;;6.02;71.65
32251;BME280;41295;48.518;9.206;2023-02-03T00:05:21;98483.06;;;5.96;71.62
32251;BME280;41295;48.518;9.206;2023-02-03T00:07:24;98479.63;;;5.89;72.35
32251;BME280;41295;48.518;9.206;2023-02-03T00:09:27;98474.47;;;5.86;72.33
32251;BME280;41295;48.518;9.206;2023-02-03T00:11:31;98478.75;;;5.85;72.61
32251;BME280;41295;48.518;9.206;2023-02-03T00:13:34;98477.03;;;5.89;72.21
32251;BME280;41295;48.518;9.206;2023-02-03T00:15:37;98483.97;;;5.93;72.34
32251;BME280;41295;48.518;9.206;2023-02-03T00:17:39;98478.78;;;5.95;71.88
32251;BME280;41295;48.518;9.206;2023-02-03T00:19:42;98479.63;;;5.95;72.15
32251;BME280;41295;48.518;9.206;2023-02-03T00:21:45;98476.19;;;5.84;72.34
32251;BME280;41295;48.518;9.206;2023-02-03T00:23:47;98473.56;;;5.77;72.74
32251;BME280;41295;48.518;9.206;2023-02-03T00:25:50;98477.88;;;5.72;73.03
32251;BME280;41295;48.518;9.206;2023-02-03T00:27:55;98477.03;;;5.83;72.80
32251;BME280;41295;48.518;9.206;2023-02-03T00:29:58;98481.34;;;5.87;72.60
32251;BME280;41295;48.518;9.206;2023-02-03T00:32:00;98481.34;;;5.76;73.06
32251;BME280;41295;48.518;9.206;2023-02-03T00:34:03;98476.16;;;5.88;73.40
32251;BME280;41295;48.518;9.206;2023-02-03T00:36:07;98477.91;;;5.89;73.79
32251;BME280;41295;48.518;9.206;2023-02-03T00:38:10;98480.47;;;5.85;73.86
32251;BME280;41295;48.518;9.206;2023-02-03T00:40:12;98471.84;;;5.83;74.22
32251;BME280;41295;48.518;9.206;2023-02-03T00:42:15;98477.00;;;5.70;74.66
32251;BME280;41295;48.518;9.206;2023-02-03T00:44:19;98472.69;;;5.61;75.46
32251;BME280;41295;48.518;9.206;2023-02-03T00:46:21;98484.78;;;5.75;74.10
32251;BME280;41295;48.518;9.206;2023-02-03T00:48:24;98475.28;;;5.69;74.82
32251;BME280;41295;48.518;9.206;2023-02-03T00:50:26;98481.28;;;5.54;75.77
32251;BME280;41295;48.518;9.206;2023-02-03T00:52:31;98477.03;;;5.73;75.18
32251;BME280;41295;48.518;9.206;2023-02-03T00:54:34;98484.78;;;5.69;75.35
32251;BME280;41295;48.518;9.206;2023-02-03T00:56:37;98481.31;;;5.59;75.84
32251;BME280;41295;48.518;9.206;2023-02-03T00:58:39;98483.00;;;5.47;76.12
32251;BME280;41295;48.518;9.206;2023-02-03T01:00:43;98479.53;;;5.44;76.52
32251;BME280;41295;48.518;9.206;2023-02-03T01:02:46;98479.56;;;5.51;76.62
32251;BME280;41295;48.518;9.206;2023-02-03T01:04:49;98483.91;;;5.59;75.69
32251;BME280;41295;48.518;9.206;2023-02-03T01:06:52;98488.22;;;5.53;75.91
32251;BME280;41295;48.518;9.206;2023-02-03T01:08:57;98495.09;;;5.59;75.85
32251;BME280;41295;48.518;9.206;2023-02-03T01:11:05;98491.66;;;5.62;75.79
32251;BME280;41295;48.518;9.206;2023-02-03T01:13:08;98485.63;;;5.57;76.23
32251;BME280;41295;48.518;9.206;2023-02-03T01:15:10;98494.25;;;5.59;76.10
32251;BME280;41295;48.518;9.206;2023-02-03T01:17:14;98493.38;;;5.60;75.77
32251;BME280;41295;48.518;9.206;2023-02-03T01:19:17;98489.09;;;5.56;76.04
32251;BME280;41295;48.518;9.206;2023-02-03T01:21:21;98497.72;;;5.62;76.07
32251;BME280;41295;48.518;9.206;2023-02-03T01:23:24;98490.81;;;5.64;75.42
32251;BME280;41295;48.518;9.206;2023-02-03T01:25:27;98477.84;;;5.55;75.63
32251;BME280;41295;48.518;9.206;2023-02-03T01:27:30;98480.44;;;5.53;75.91
32251;BME280;41295;48.518;9.206;2023-02-03T01:29:33;98470.09;;;5.58;75.56
32251;BME280;41295;48.518;9.206;2023-02-03T01:31:37;98468.38;;;5.57;75.16
32251;BME280;41295;48.518;9.206;2023-02-03T01:33:42;98460.63;;;5.60;75.39
32251;BME280;41295;48.518;9.206;2023-02-03T01:35:47;98446.84;;;5.64;74.90
32251;BME280;41295;48.518;9.206;2023-02-03T01:37:49;98437.34;;;5.68;74.61
32251;BME280;41295;48.518;9.206;2023-02-03T01:39:52;98425.25;;;5.67;74.91
32251;BME280;41295;48.518;9.206;2023-02-03T01:41:55;98419.22;;;5.68;74.42
32251;BME280;41295;48.518;9.206;2023-02-03T01:44:00;98410.59;;;5.71;74.63
32251;BME280;41295;48.518;9.206;2023-02-03T01:46:06;98419.22;;;5.76;74.26
32251;BME280;41295;48.518;9.206;2023-02-03T01:48:17;98428.72;;;5.82;73.50
32251;BME280;41295;48.518;9.206;2023-02-03T01:50:24;98435.59;;;5.70;73.70
32251;BME280;41295;48.518;9.206;2023-02-03T01:52:29;98420.94;;;5.64;73.62
32251;BME280;41295;48.518;9.206;2023-02-03T01:54:37;98411.44;;;5.65;74.12
32251;BME280;41295;48.518;9.206;2023-02-03T01:56:46;98412.31;;;5.62;73.76
32251;BME280;41295;48.518;9.206;2023-02-03T01:58:49;98407.13;;;5.56;74.53
32251;BME280;41295;48.518;9.206;2023-02-03T02:00:53;98414.88;;;5.44;74.99
32251;BME280;41295;48.518;9.206;2023-02-03T02:02:59;98418.31;;;5.47;74.98
32251;BME280;41295;48.518;9.206;2023-02-03T02:05:06;98421.81;;;5.56;74.29
32251;BME280;41295;48.518;9.206;2023-02-03T02:07:11;98426.09;;;5.47;74.92
32251;BME280;41295;48.518;9.206;2023-02-03T02:09:16;98443.34;;;5.54;74.73
32251;BME280;41295;48.518;9.206;2023-02-03T02:11:19;98443.34;;;5.56;74.40
32251;BME280;41295;48.518;9.206;2023-02-03T02:13:23;98443.34;;;5.58;74.33
32251;BME280;41295;48.518;9.206;2023-02-03T02:15:32;98438.19;;;5.48;74.85
32251;BME280;41295;48.518;9.206;2023-02-03T02:17:55;98451.97;;;5.43;74.88
32251;BME280;41295;48.518;9.206;2023-02-03T02:20:41;98456.28;;;5.59;74.03
32251;BME280;41295;48.518;9.206;2023-02-03T02:23:05;98449.41;;;5.66;73.52
32251;BME280;41295;48.518;9.206;2023-02-03T02:25:35;98445.09;;;5.65;73.79
32251;BME280;41295;48.518;9.206;2023-02-03T02:28:08;98424.38;;;5.65;73.79
32251;BME280;41295;48.518;9.206;2023-02-03T02:30:35;98430.38;;;5.47;74.52
32251;BME280;41295;48.518;9.206;2023-02-03T02:32:48;98417.44;;;5.47;75.00
32251;BME280;41295;48.518;9.206;2023-02-03T02:35:01;98395.03;;;5.63;74.05
32251;BME280;41295;48.518;9.206;2023-02-03T02:37:11;98378.66;;;5.70;73.99
32251;BME280;41295;48.518;9.206;2023-02-03T02:39:22;98373.47;;;5.69;73.47
32251;BME280;41295;48.518;9.206;2023-02-03T02:41:30;98370.03;;;5.62;73.81
32251;BME280;41295;48.518;9.206;2023-02-03T02:43:40;98377.78;;;5.88;72.91
32251;BME280;41295;48.518;9.206;2023-02-03T02:45:45;98381.22;;;5.84;72.54
32251;BME280;41295;48.518;9.206;2023-02-03T02:47:52;98394.19;;;5.69;73.36
32251;BME280;41295;48.518;9.206;2023-02-03T02:50:00;98386.41;;;5.84;72.80
32251;BME280;41295;48.518;9.206;2023-02-03T02:52:06;98383.84;;;5.80;72.95
32251;BME280;41295;48.518;9.206;2023-02-03T02:54:13;98388.16;;;5.84;72.54
32251;BME280;41295;48.518;9.206;2023-02-03T02:56:18;98389.88;;;5.86;72.32
32251;BME280;41295;48.518;9.206;2023-02-03T02:58:22;98379.50;;;5.96;71.59
32251;BME280;41295;48.518;9.206;2023-02-03T03:00:28;98377.78;;;5.88;72.30
32251;BME280;41295;48.518;9.206;2023-02-03T03:02:31;98368.31;;;5.86;72.73
32251;BME280;41295;48.518;9.206;2023-02-03T03:04:37;98370.03;;;5.98;72.13
32251;BME280;41295;48.518;9.206;2023-02-03T03:06:43;98350.19;;;5.81;72.41
32251;BME280;41295;48.518;9.206;2023-02-03T03:08:52;98359.69;;;5.73;73.11
32251;BME280;41295;48.518;9.206;2023-02-03T03:10:57;98368.31;;;5.70;72.92
32251;BME280;41295;48.518;9.206;2023-02-03T03:13:04;98371.75;;;5.72;72.89
32251;BME280;41295;48.518;9.206;2023-02-03T03:15:11;98376.06;;;5.67;73.33
32251;BME280;41295;48.518;9.206;2023-02-03T03:17:19;98371.78;;;5.80;72.72
32251;BME280;41295;48.518;9.206;2023-02-03T03:19:24;98372.63;;;5.79;72.73
32251;BME280;41295;48.518;9.206;2023-02-03T03:21:34;98380.41;;;5.74;72.61
32251;BME280;41295;48.518;9.206;2023-02-03T03:23:39;98381.25;;;5.80;72.64
32251;BME280;41295;48.518;9.206;2023-02-03T03:25:48;98379.53;;;5.66;73.17
32251;BME280;41295;48.518;9.206;2023-02-03T03:27:57;98370.88;;;5.72;72.90
32251;BME280;41295;48.518;9.206;2023-02-03T03:30:02;98367.44;;;5.85;71.94
32251;BME280;41295;48.518;9.206;2023-02-03T03:32:07;98368.31;;;5.87;71.75
32251;BME280;41295;48.518;9.206;2023-02-03T03:34:11;98368.28;;;5.83;71.92
32251;BME280;41295;48.518;9.206;2023-02-03T03:36:20;98370.91;;;5.67;72.64
32251;BME280;41295;48.518;9.206;2023-02-03T03:38:30;98381.25;;;5.64;73.29
32251;BME280;41295;48.518;9.206;2023-02-03T03:40:37;98366.56;;;5.63;72.98
32251;BME280;41295;48.518;9.206;2023-02-03T03:42:45;98373.47;;;5.70;72.68
32251;BME280;41295;48.518;9.206;2023-02-03T03:44:56;98363.97;;;5.96;71.68
32251;BME280;41295;48.518;9.206;2023-02-03T03:47:06;98382.13;;;5.78;72.11
32251;BME280;41295;48.518;9.206;2023-02-03T03:49:11;98398.50;;;5.90;71.64
32251;BME280;41295;48.518;9.206;2023-02-03T03:51:18;98404.56;;;5.86;71.59
32251;BME280;41295;48.518;9.206;2023-02-03T03:53:22;98409.72;;;5.92;71.36
32251;BME280;41295;48.518;9.206;2023-02-03T03:55:28;98429.59;;;5.93;71.36
32251;BME280;41295;48.518;9.206;2023-02-03T03:57:35;98422.66;;;5.97;71.34
32251;BME280;41295;48.518;9.206;2023-02-03T03:59:40;98425.25;;;5.89;71.58
32251;BME280;41295;48.518;9.206;2023-02-03T04:01:46;98420.94;;;5.80;71.82
32251;BME280;41295;48.518;9.206;2023-02-03T04:03:53;98428.69;;;5.97;71.36
32251;BME280;41295;48.518;9.206;2023-02-03T04:05:56;98433.88;;;5.82;71.78
32251;BME280;41295;48.518;9.206;2023-02-03T04:07:59;98447.69;;;5.70;72.41
32251;BME280;41295;48.518;9.206;2023-02-03T04:10:06;98439.91;;;5.76;71.78
32251;BME280;41295;48.518;9.206;2023-02-03T04:12:20;98443.38;;;5.75;72.19
32251;BME280;41295;48.518;9.206;2023-02-03T04:14:23;98441.66;;;5.89;71.46
32251;BME280;41295;48.518;9.206;2023-02-03T04:16:26;98454.56;;;5.74;72.04
32251;BME280;41295;48.518;9.206;2023-02-03T04:18:29;98460.63;;;5.76;72.39
32251;BME280;41295;48.518;9.206;2023-02-03T04:20:31;98452.00;;;5.72;72.08
32251;BME280;41295;48.518;9.206;2023-02-03T04:22:34;98450.25;;;5.79;72.09
32251;BME280;41295;48.518;9.206;2023-02-03T04:24:37;98441.63;;;5.75;71.94
32251;BME280;41295;48.518;9.206;2023-02-03T04:26:39;98443.38;;;5.76;72.42
32251;BME280;41295;48.518;9.206;2023-02-03T04:28:43;98445.09;;;5.99;71.36
32251;BME280;41295;48.518;9.206;2023-02-03T04:30:46;98443.38;;;5.86;71.25
32251;BME280;41295;48.518;9.206;2023-02-03T04:32:49;98440.78;;;5.83;71.66
32251;BME280;41295;48.518;9.206;2023-02-03T04:34:51;98434.75;;;5.90;71.41
32251;BME280;41295;48.518;9.206;2023-02-03T04:36:54;98437.34;;;5.84;71.88
32251;BME280;41295;48.518;9.206;2023-02-03T04:38:57;98433.88;;;5.88;71.52
32251;BME280;41295;48.518;9.206;2023-02-03T04:40:59;98449.41;;;5.82;72.12
32251;BME280;41295;48.518;9.206;2023-02-03T04:43:05;98446.81;;;5.86;71.67
32251;BME280;41295;48.518;9.206;2023-02-03T04:45:12;98440.78;;;6.01;70.91
32251;BME280;41295;48.518;9.206;2023-02-03T04:47:15;98425.25;;;6.09;70.52
32251;BME280;41295;48.518;9.206;2023-02-03T04:49:20;98411.44;;;6.04;70.97
32251;BME280;41295;48.518;9.206;2023-02-03T04:51:23;98414.94;;;6.11;70.83
32251;BME280;41295;48.518;9.206;2023-02-03T04:53:25;98417.47;;;5.97;71.46
32251;BME280;41295;48.518;9.206;2023-02-03T04:55:28;98411.47;;;6.12;70.76
32251;BME280;41295;48.518;9.206;2023-02-03T04:57:31;98408.88;;;5.96;71.05
32251;BME280;41295;48.518;9.206;2023-02-03T04:59:33;98399.34;;;5.95;71.23
32251;BME280;41295;48.518;9.206;2023-02-03T05:01:37;98403.69;;;5.85;71.65
32251;BME280;41295;48.518;9.206;2023-02-03T05:03:40;98395.06;;;6.07;70.97
32251;BME280;41295;48.518;9.206;2023-02-03T05:05:42;98391.59;;;6.03;71.18
32251;BME280;41295;48.518;9.206;2023-02-03T05:07:45;98387.28;;;5.82;71.40
32251;BME280;41295;48.518;9.206;2023-02-03T05:09:48;98390.75;;;5.93;70.69
32251;BME280;41295;48.518;9.206;2023-02-03T05:11:50;98396.75;;;6.05;70.22
32251;BME280;41295;48.518;9.206;2023-02-03T05:13:53;98394.19;;;5.90;70.78
32251;BME280;41295;48.518;9.206;2023-02-03T05:15:56;98413.19;;;5.82;70.96
32251;BME280;41295;48.518;9.206;2023-02-03T05:18:00;98414.88;;;5.83;71.13
32251;BME280;41295;48.518;9.206;2023-02-03T05:20:03;98405.38;;;6.00;69.69
32251;BME280;41295;48.518;9.206;2023-02-03T05:22:05;98414.91;;;6.01;70.19
32251;BME280;41295;48.518;9.206;2023-02-03T05:24:08;98406.25;;;6.04;70.04
32251;BME280;41295;48.518;9.206;2023-02-03T05:26:11;98414.03;;;6.01;70.24
32251;BME280;41295;48.518;9.206;2023-02-03T05:28:14;98406.28;;;5.95;70.57
32251;BME280;41295;48.518;9.206;2023-02-03T05:30:17;98414.03;;;5.98;70.37
32251;BME280;41295;48.518;9.206;2023-02-03T05:32:20;98408.00;;;5.93;70.51
32251;BME280;41295;48.518;9.206;2023-02-03T05:34:23;98414.91;;;6.01;70.68
32251;BME280;41295;48.518;9.206;2023-02-03T05:36:26;98414.91;;;5.98;70.33
32251;BME280;41295;48.518;9.206;2023-02-03T05:38:29;98413.19;;;5.80;70.81
32251;BME280;41295;48.518;9.206;2023-02-03T05:40:32;98413.16;;;5.75;70.94
32251;BME280;41295;48.518;9.206;2023-02-03T05:42:52;98420.94;;;5.75;70.99
32251;BME280;41295;48.518;9.206;2023-02-03T05:44:54;98424.41;;;5.82;71.09
32251;BME280;41295;48.518;9.206;2023-02-03T05:46:58;98425.25;;;6.01;69.97
32251;BME280;41295;48.518;9.206;2023-02-03T05:49:01;98439.09;;;6.07;70.07
32251;BME280;41295;48.518;9.206;2023-02-03T05:51:05;98445.97;;;5.87;70.48
32251;BME280;41295;48.518;9.206;2023-02-03T05:53:07;98436.47;;;5.80;70.84
32251;BME280;41295;48.518;9.206;2023-02-03T05:55:10;98455.47;;;5.84;70.94
32251;BME280;41295;48.518;9.206;2023-02-03T05:57:13;98468.41;;;5.71;71.47
32251;BME280;41295;48.518;9.206;2023-02-03T05:59:15;98467.53;;;5.66;72.16
32251;BME280;41295;48.518;9.206;2023-02-03T06:01:18;98451.97;;;5.60;72.50
32251;BME280;41295;48.518;9.206;2023-02-03T06:03:21;98444.22;;;5.57;72.93
32251;BME280;41295;48.518;9.206;2023-02-03T06:05:24;98449.38;;;5.61;73.03
32251;BME280;41295;48.518;9.206;2023-02-03T06:07:28;98435.59;;;5.56;73.08
32251;BME280;41295;48.518;9.206;2023-02-03T06:09:31;98434.72;;;5.63;72.98
32251;BME280;41295;48.518;9.206;2023-02-03T06:11:34;98424.38;;;5.77;72.33
32251;BME280;41295;48.518;9.206;2023-02-03T06:13:37;98429.56;;;5.66;72.50
32251;BME280;41295;48.518;9.206;2023-02-03T06:15:41;98428.72;;;5.82;71.76
32251;BME280;41295;48.518;9.206;2023-02-03T06:17:45;98423.53;;;5.74;72.23
32251;BME280;41295;48.518;9.206;2023-02-03T06:19:47;98438.19;;;5.84;71.22
32251;BME280;41295;48.518;9.206;2023-02-03T06:21:50;98450.25;;;5.79;71.49
32251;BME280;41295;48.518;9.206;2023-02-03T06:23:54;98443.38;;;5.83;70.74
32251;BME280;41295;48.518;9.206;2023-02-03T06:25:57;98446.84;;;5.78;71.45
32251;BME280;41295;48.518;9.206;2023-02-03T06:28:00;98449.41;;;5.85;70.88
32251;BME280;41295;48.518;9.206;2023-02-03T06:30:03;98446.84;;;5.96;70.41
32251;BME280;41295;48.518;9.206;2023-02-03T06:32:07;98414.03;;;5.99;70.15
32251;BME280;41295;48.518;9.206;2023-02-03T06:34:09;98419.22;;;6.01;70.09
32251;BME280;41295;48.518;9.206;2023-02-03T06:36:12;98415.78;;;5.91;70.30
32251;BME280;41295;48.518;9.206;2023-02-03T06:38:15;98421.78;;;5.77;70.43
32251;BME280;41295;48.518;9.206;2023-02-03T06:40:19;98415.75;;;5.96;70.13
32251;BME280;41295;48.518;9.206;2023-02-03T06:42:21;98407.13;;;5.90;70.32
32251;BME280;41295;48.518;9.206;2023-02-03T06:44:24;98401.97;;;5.80;70.54
32251;BME280;41295;48.518;9.206;2023-02-03T06:46:26;98411.47;;;5.73;70.89
32251;BME280;41295;48.518;9.206;2023-02-03T06:48:30;98423.53;;;5.74;71.00
32251;BME280;41295;48.518;9.206;2023-02-03T06:50:33;98414.03;;;5.77;70.72
32251;BME280;41295;48.518;9.206;2023-02-03T06:52:36;98420.06;;;5.83;70.56
32251;BME280;41295;48.518;9.206;2023-02-03T06:54:39;98432.16;;;5.68;70.95
32251;BME280;41295;48.518;9.206;2023-02-03T06:56:43;98434.75;;;5.95;70.17
32251;BME280;41295;48.518;9.206;2023-02-03T06:58:45;98430.44;;;5.94;69.98
32251;BME280;41295;48.518;9.206;2023-02-03T07:00:48;98413.19;;;5.89;70.45
32251;BME280;41295;48.518;9.206;2023-02-03T07:02:52;98397.63;;;6.00;70.57
32251;BME280;41295;48.518;9.206;2023-02-03T07:04:55;98401.97;;;5.87;70.88
32251;BME280;41295;48.518;9.206;2023-02-03T07:06:58;98398.50;;;5.88;71.16
32251;BME280;41295;48.518;9.206;2023-02-03T07:09:02;98389.88;;;5.72;72.05
32251;BME280;41295;48.518;9.206;2023-02-03T07:11:05;98378.66;;;5.76;72.10
32251;BME280;41295;48.518;9.206;2023-02-03T07:13:09;98381.25;;;5.90;71.57
32251;BME280;41295;48.518;9.206;2023-02-03T07:15:12;98386.44;;;5.89;71.32
32251;BME280;41295;48.518;9.206;2023-02-03T07:17:15;98383.81;;;5.95;71.28
32251;BME280;41295;48.518;9.206;2023-02-03T07:19:17;98370.91;;;5.89;71.15
32251;BME280;41295;48.518;9.206;2023-02-03T07:21:20;98380.38;;;5.88;70.98
32251;BME280;41295;48.518;9.206;2023-02-03T07:23:23;98389.00;;;5.80;71.27
32251;BME280;41295;48.518;9.206;2023-02-03T07:25:25;98382.13;;;5.69;71.90
32251;BME280;41295;48.518;9.206;2023-02-03T07:27:28;98383.00;;;5.71;72.22
32251;BME280;41295;48.518;9.206;2023-02-03T07:29:32;98387.28;;;5.82;71.43
32251;BME280;41295;48.518;9.206;2023-02-03T07:31:34;98387.28;;;5.74;71.03
32251;BME280;41295;48.518;9.206;2023-02-03T07:33:38;98389.88;;;5.66;71.86
32251;BME280;41295;48.518;9.206;2023-02-03T07:35:41;98382.13;;;5.66;72.20
32251;BME280;41295;48.518;9.206;2023-02-03T07:37:44;98391.59;;;6.05;70.15
32251;BME280;41295;48.518;9.206;2023-02-03T07:39:46;98385.53;;;6.18;69.47
32251;BME280;41295;48.518;9.206;2023-02-03T07:41:49;98371.75;;;5.97;70.52
32251;BME280;41295;48.518;9.206;2023-02-03T07:43:52;98375.19;;;6.02;70.40
32251;BME280;41295;48.518;9.206;2023-02-03T07:45:56;98376.94;;;5.80;71.20
32251;BME280;41295;48.518;9.206;2023-02-03T07:48:02;98373.50;;;5.86;71.56
32251;BME280;41295;48.518;9.206;2023-02-03T07:50:05;98384.69;;;5.85;70.91
32251;BME280;41295;48.518;9.206;2023-02-03T07:52:08;98380.38;;;5.85;70.77
32251;BME280;41295;48.518;9.206;2023-02-03T07:54:10;98376.91;;;6.00;70.70
32251;BME280;41295;48.518;9.206;2023-02-03T07:56:13;98384.72;;;6.16;70.12
32251;BME280;41295;48.518;9.206;2023-02-03T07:58:15;98382.13;;;6.08;70.68
32251;BME280;41295;48.518;9.206;2023-02-03T08:00:19;98402.84;;;6.08;70.42
32251;BME280;41295;48.518;9.206;2023-02-03T08:02:23;98409.72;;;5.94;70.70
32251;BME280;41295;48.518;9.206;2023-02-03T08:04:26;98421.81;;;6.06;70.50
32251;BME280;41295;48.518;9.206;2023-02-03T08:06:28;98429.59;;;6.13;70.78
32251;BME280;41295;48.518;9.206;2023-02-03T08:08:31;98427.88;;;6.11;70.42
32251;BME280;41295;48.518;9.206;2023-02-03T08:10:34;98427.84;;;6.00;70.76
32251;BME280;41295;48.518;9.206;2023-02-03T08:12:37;98433.91;;;6.05;71.10
32251;BME280;41295;48.518;9.206;2023-02-03T08:14:40;98436.50;;;6.07;70.80
32251;BME280;41295;48.518;9.206;2023-02-03T08:16:43;98432.19;;;6.09;70.49
32251;BME280;41295;48.518;9.206;2023-02-03T08:18:47;98443.41;;;6.23;69.94
32251;BME280;41295;48.518;9.206;2023-02-03T08:20:50;98455.50;;;6.21;69.99
32251;BME280;41295;48.518;9.206;2023-02-03T08:22:52;98463.25;;;6.18;70.04
32251;BME280;41295;48.518;9.206;2023-02-03T08:24:55;98453.75;;;6.17;69.87
32251;BME280;41295;48.518;9.206;2023-02-03T08:26:59;98454.63;;;6.07;70.59
32251;BME280;41295;48.518;9.206;2023-02-03T08:29:02;98454.63;;;6.19;70.01
32251;BME280;41295;48.518;9.206;2023-02-03T08:31:08;98467.59;;;6.05;70.95
32251;BME280;41295;48.518;9.206;2023-02-03T08:33:11;98467.53;;;5.99;71.40
32251;BME280;41295;48.518;9.206;2023-02-03T08:35:15;98455.47;;;6.06;71.18
32251;BME280;41295;48.518;9.206;2023-02-03T08:37:19;98464.09;;;6.09;71.30
32251;BME280;41295;48.518;9.206;2023-02-03T08:39:22;98467.56;;;6.08;71.97
32251;BME280;41295;48.518;9.206;2023-02-03T08:41:25;98467.53;;;6.00;72.84
32251;BME280;41295;48.518;9.206;2023-02-03T08:43:28;98473.56;;;6.04;72.78
32251;BME280;41295;48.518;9.206;2023-02-03T08:45:30;98471.00;;;6.01;73.38
32251;BME280;41295;48.518;9.206;2023-02-03T08:47:33;98468.44;;;6.07;72.04
32251;BME280;41295;48.518;9.206;2023-02-03T08:49:37;98468.41;;;5.96;72.85
32251;BME280;41295;48.518;9.206;2023-02-03T08:51:42;98468.41;;;5.96;73.53
32251;BME280;41295;48.518;9.206;2023-02-03T08:53:46;98465.81;;;5.92;73.79
32251;BME280;41295;48.518;9.206;2023-02-03T08:55:48;98469.31;;;6.11;73.65
32251;BME280;41295;48.518;9.206;2023-02-03T08:57:51;98468.44;;;6.23;72.56
32251;BME280;41295;48.518;9.206;2023-02-03T08:59:53;98472.75;;;6.07;73.34
32251;BME280;41295;48.518;9.206;2023-02-03T09:01:56;98490.88;;;6.02;73.78
32251;BME280;41295;48.518;9.206;2023-02-03T09:04:00;98477.94;;;6.15;73.03
32251;BME280;41295;48.518;9.206;2023-02-03T09:06:06;98480.53;;;6.22;73.60
32251;BME280;41295;48.518;9.206;2023-02-03T09:08:10;98471.03;;;6.21;73.38
32251;BME280;41295;48.518;9.206;2023-02-03T09:10:12;98459.78;;;6.25;73.08
32251;BME280;41295;48.518;9.206;2023-02-03T09:12:15;98463.25;;;6.18;73.42
32251;BME280;41295;48.518;9.206;2023-02-03T09:14:18;98474.47;;;6.28;72.23
32251;BME280;41295;48.518;9.206;2023-02-03T09:16:21;98479.66;;;6.20;72.46
32251;BME280;41295;48.518;9.206;2023-02-03T09:18:23;98476.16;;;6.43;71.47
32251;BME280;41295;48.518;9.206;2023-02-03T09:20:26;98475.31;;;6.43;71.75
32251;BME280;41295;48.518;9.206;2023-02-03T09:22:30;98468.41;;;6.29;72.09
32251;BME280;41295;48.518;9.206;2023-02-03T09:24:34;98480.50;;;6.35;72.28
32251;BME280;41295;48.518;9.206;2023-02-03T09:26:37;98469.31;;;6.23;72.46
32251;BME280;41295;48.518;9.206;2023-02-03T09:28:39;98470.16;;;6.18;72.46
32251;BME280;41295;48.518;9.206;2023-02-03T09:30:42;98460.66;;;6.37;72.17
32251;BME280;41295;48.518;9.206;2023-02-03T09:32:45;98454.63;;;6.21;72.88
32251;BME280;41295;48.518;9.206;2023-02-03T09:34:54;98448.59;;;6.25;73.48
32251;BME280;41295;48.518;9.206;2023-02-03T09:36:56;98452.88;;;6.28;73.58
32251;BME280;41295;48.518;9.206;2023-02-03T09:38:59;98452.03;;;6.22;73.55
32251;BME280;41295;48.518;9.206;2023-02-03T09:41:13;98452.00;;;6.36;73.08
32251;BME280;41295;48.518;9.206;2023-02-03T09:43:30;98452.81;;;6.60;71.26
32251;BME280;41295;48.518;9.206;2023-02-03T09:45:33;98458.88;;;6.58;71.68
32251;BME280;41295;48.518;9.206;2023-02-03T09:47:39;98460.56;;;6.67;71.05
32251;BME280;41295;48.518;9.206;2023-02-03T09:49:44;98464.06;;;6.55;71.82
32251;BME280;41295;48.518;9.206;2023-02-03T09:51:53;98450.19;;;6.68;71.89
32251;BME280;41295;48.518;9.206;2023-02-03T09:54:02;98458.03;;;6.51;71.66
32251;BME280;41295;48.518;9.206;2023-02-03T09:56:18;98460.63;;;6.40;72.39
32251;BME280;41295;48.518;9.206;2023-02-03T09:58:23;98468.38;;;6.54;72.19
32251;BME280;41295;48.518;9.206;2023-02-03T10:00:32;98466.66;;;6.58;71.04
32251;BME280;41295;48.518;9.206;2023-02-03T10:02:45;98465.78;;;6.60;70.93
32251;BME280;41295;48.518;9.206;2023-02-03T10:04:57;98459.69;;;6.77;69.60
32251;BME280;41295;48.518;9.206;2023-02-03T10:07:06;98462.25;;;6.77;70.65
32251;BME280;41295;48.518;9.206;2023-02-03T10:09:20;98452.81;;;6.71;70.41
32251;BME280;41295;48.518;9.206;2023-02-03T10:11:46;98451.97;;;6.60;70.84
32251;BME280;41295;48.518;9.206;2023-02-03T10:14:02;98445.91;;;6.56;71.47
32251;BME280;41295;48.518;9.206;2023-02-03T10:16:20;98443.25;;;6.88;70.17
32251;BME280;41295;48.518;9.206;2023-02-03T10:18:28;98442.41;;;6.84;69.00
32251;BME280;41295;48.518;9.206;2023-02-03T10:20:37;98432.88;;;6.86;69.34
32251;BME280;41295;48.518;9.206;2023-02-03T10:22:43;98429.41;;;6.87;68.65
32251;BME280;41295;48.518;9.206;2023-02-03T10:24:51;98430.28;;;6.83;69.24
32251;BME280;41295;48.518;9.206;2023-02-03T10:26:57;98428.53;;;6.94;68.64
32251;BME280;41295;48.518;9.206;2023-02-03T10:29:03;98419.03;;;6.87;68.88
32251;BME280;41295;48.518;9.206;2023-02-03T10:31:15;98425.09;;;6.86;69.16
32251;BME280;41295;48.518;9.206;2023-02-03T10:33:20;98413.03;;;6.79;69.71
32251;BME280;41295;48.518;9.206;2023-02-03T10:35:29;98456.22;;;6.88;68.95
32251;BME280;41295;48.518;9.206;2023-02-03T10:37:36;98444.94;;;6.98;68.27
32251;BME280;41295;48.518;9.206;2023-02-03T10:39:45;98444.09;;;6.88;68.47
32251;BME280;41295;48.518;9.206;2023-02-03T10:41:48;98443.22;;;6.94;68.88
32251;BME280;41295;48.518;9.206;2023-02-03T10:43:52;98450.06;;;7.06;67.49
32251;BME280;41295;48.518;9.206;2023-02-03T10:45:57;98445.72;;;7.08;67.90
32251;BME280;41295;48.518;9.206;2023-02-03T10:48:02;98447.53;;;6.95;67.91
32251;BME280;41295;48.518;9.206;2023-02-03T10:50:08;98462.22;;;6.90;67.61
32251;BME280;41295;48.518;9.206;2023-02-03T10:52:30;98451.00;;;6.84;67.64
32251;BME280;41295;48.518;9.206;2023-02-03T10:54:35;98454.47;;;6.91;67.66
32251;BME280;41295;48.518;9.206;2023-02-03T10:56:39;98467.41;;;6.88;67.45
32251;BME280;41295;48.518;9.206;2023-02-03T10:58:46;98459.69;;;6.79;68.44
32251;BME280;41295;48.518;9.206;2023-02-03T11:00:54;98450.16;;;6.81;68.69
32251;BME280;41295;48.518;9.206;2023-02-03T11:03:03;98443.25;;;6.88;68.29
32251;BME280;41295;48.518;9.206;2023-02-03T11:05:09;98420.81;;;6.79;68.66
32251;BME280;41295;48.518;9.206;2023-02-03T11:07:23;98413.88;;;6.82;69.60
32251;BME280;41295;48.518;9.206;2023-02-03T11:09:30;98421.66;;;6.84;68.19
32251;BME280;41295;48.518;9.206;2023-02-03T11:11:34;98409.59;;;6.73;68.85